Pawnee, Illinois
Current Conditions -  °F | °C
As of 8:15 AM on Monday 22 Dec 2014 (Local Time) from KTAZ Reporting Station
Light Rain Light Rain  
Wind Chill: 25°   Ceiling: 1900
Heat Index: 34°   Visibility: 2mi
Dew Point: 34°   Wind: 12mph
Humidity: 100%   Direction: 120°ESE
Pressure: 29.8"   Gusts: NA
Location:  39.59°N, 89.58°W
Report Text: KTAZ 221415Z AUTO 12010KT 2SM -RA SCT012 BKN019 OVC050 01/01 A2980 RMK AO2 P0001
Loading
Personal Weather Stations






























Interactive Weather Map New forecast layout! Learn more

10-Day Weather Forecast

Advertisements
Track Severe Weather on mobile